sensor_id;sensor_type;location;lat;lon;timestamp;temperature;humidity
8043;DHT22;4064;48.132;11.366;2023-02-01T00:01:35;3.00;99.90
8043;DHT22;4064;48.132;11.366;2023-02-01T00:04:00;3.00;99.90
8043;DHT22;4064;48.132;11.366;2023-02-01T00:06:32;3.00;99.90
8043;DHT22;4064;48.132;11.366;2023-02-01T00:09:01;3.00;99.90
8043;DHT22;4064;48.132;11.366;2023-02-01T00:11:26;3.00;99.90
8043;DHT22;4064;48.132;11.366;2023-02-01T00:13:53;3.10;99.90
8043;DHT22;4064;48.132;11.366;2023-02-01T00:16:23;3.10;99.90
8043;DHT22;4064;48.132;11.366;2023-02-01T00:18:51;3.10;99.90
8043;DHT22;4064;48.132;11.366;2023-02-01T00:21:19;3.10;99.90
8043;DHT22;4064;48.132;11.366;2023-02-01T00:23:45;3.10;99.90
8043;DHT22;4064;48.132;11.366;2023-02-01T00:26:25;3.10;99.90
8043;DHT22;4064;48.132;11.366;2023-02-01T00:28:51;3.10;99.90
8043;DHT22;4064;48.132;11.366;2023-02-01T00:31:16;3.00;99.90
8043;DHT22;4064;48.132;11.366;2023-02-01T00:33:42;3.00;99.90
8043;DHT22;4064;48.132;11.366;2023-02-01T00:36:08;3.00;99.90
8043;DHT22;4064;48.132;11.366;2023-02-01T00:38:37;3.00;99.90
8043;DHT22;4064;48.132;11.366;2023-02-01T00:41:04;3.00;99.90
8043;DHT22;4064;48.132;11.366;2023-02-01T00:43:31;3.00;99.90
8043;DHT22;4064;48.132;11.366;2023-02-01T00:45:57;3.00;99.90
8043;DHT22;4064;48.132;11.366;2023-02-01T00:48:23;3.00;99.90
8043;DHT22;4064;48.132;11.366;2023-02-01T00:50:49;2.90;99.90
8043;DHT22;4064;48.132;11.366;2023-02-01T00:53:15;2.90;99.90
8043;DHT22;4064;48.132;11.366;2023-02-01T00:55:40;2.80;99.90
8043;DHT22;4064;48.132;11.366;2023-02-01T00:58:09;2.80;99.90
8043;DHT22;4064;48.132;11.366;2023-02-01T01:00:35;2.80;99.90
8043;DHT22;4064;48.132;11.366;2023-02-01T01:03:01;2.70;99.90
8043;DHT22;4064;48.132;11.366;2023-02-01T01:05:26;2.70;99.90
8043;DHT22;4064;48.132;11.366;2023-02-01T01:07:53;2.70;99.90
8043;DHT22;4064;48.132;11.366;2023-02-01T01:10:19;2.70;99.90
8043;DHT22;4064;48.132;11.366;2023-02-01T01:12:45;2.70;99.90
8043;DHT22;4064;48.132;11.366;2023-02-01T01:15:11;2.70;99.90
8043;DHT22;4064;48.132;11.366;2023-02-01T01:17:36;2.70;99.90
8043;DHT22;4064;48.132;11.366;2023-02-01T01:20:03;2.70;99.90
8043;DHT22;4064;48.132;11.366;2023-02-01T01:22:29;2.70;99.90
8043;DHT22;4064;48.132;11.366;2023-02-01T01:24:54;2.70;99.90
8043;DHT22;4064;48.132;11.366;2023-02-01T01:27:20;2.60;99.90
8043;DHT22;4064;48.132;11.366;2023-02-01T01:29:49;2.60;99.90
8043;DHT22;4064;48.132;11.366;2023-02-01T01:32:15;2.60;99.90
8043;DHT22;4064;48.132;11.366;2023-02-01T01:34:41;2.60;99.90
8043;DHT22;4064;48.132;11.366;2023-02-01T01:37:07;2.60;99.90
8043;DHT22;4064;48.132;11.366;2023-02-01T01:39:33;2.50;99.90
8043;DHT22;4064;48.132;11.366;2023-02-01T01:41:58;2.50;99.90
8043;DHT22;4064;48.132;11.366;2023-02-01T01:44:59;2.50;99.90
8043;DHT22;4064;48.132;11.366;2023-02-01T01:47:26;2.50;99.90
8043;DHT22;4064;48.132;11.366;2023-02-01T01:49:54;2.40;99.90
8043;DHT22;4064;48.132;11.366;2023-02-01T01:52:20;2.40;99.90
8043;DHT22;4064;48.132;11.366;2023-02-01T01:54:48;2.40;99.90
8043;DHT22;4064;48.132;11.366;2023-02-01T01:57:19;2.40;99.90
8043;DHT22;4064;48.132;11.366;2023-02-01T01:59:54;2.30;99.90
8043;DHT22;4064;48.132;11.366;2023-02-01T02:02:23;2.30;99.90
8043;DHT22;4064;48.132;11.366;2023-02-01T02:04:50;2.30;99.90
8043;DHT22;4064;48.132;11.366;2023-02-01T02:07:19;2.30;99.90
8043;DHT22;4064;48.132;11.366;2023-02-01T02:09:46;2.30;99.90
8043;DHT22;4064;48.132;11.366;2023-02-01T02:12:12;2.20;99.90
8043;DHT22;4064;48.132;11.366;2023-02-01T02:14:38;2.20;99.90
8043;DHT22;4064;48.132;11.366;2023-02-01T02:17:41;2.20;99.90
8043;DHT22;4064;48.132;11.366;2023-02-01T02:23:24;2.20;99.90
8043;DHT22;4064;48.132;11.366;2023-02-01T02:31:46;2.30;99.90
8043;DHT22;4064;48.132;11.366;2023-02-01T02:40:03;2.30;99.90
8043;DHT22;4064;48.132;11.366;2023-02-01T02:42:48;2.30;99.90
8043;DHT22;4064;48.132;11.366;2023-02-01T02:48:44;2.30;99.90
8043;DHT22;4064;48.132;11.366;2023-02-01T02:51:27;2.30;99.90
8043;DHT22;4064;48.132;11.366;2023-02-01T02:54:36;2.30;99.90
8043;DHT22;4064;48.132;11.366;2023-02-01T02:57:26;2.40;99.90
8043;DHT22;4064;48.132;11.366;2023-02-01T03:00:14;2.40;99.90
8043;DHT22;4064;48.132;11.366;2023-02-01T03:02:58;2.40;99.90
8043;DHT22;4064;48.132;11.366;2023-02-01T03:05:45;2.40;99.90
8043;DHT22;4064;48.132;11.366;2023-02-01T03:08:20;2.40;99.90
8043;DHT22;4064;48.132;11.366;2023-02-01T03:11:06;2.40;99.90
8043;DHT22;4064;48.132;11.366;2023-02-01T03:13:55;2.50;99.90
8043;DHT22;4064;48.132;11.366;2023-02-01T03:16:43;2.50;99.90
8043;DHT22;4064;48.132;11.366;2023-02-01T03:19:16;2.50;99.90
8043;DHT22;4064;48.132;11.366;2023-02-01T03:21:53;2.60;99.90
8043;DHT22;4064;48.132;11.366;2023-02-01T03:24:25;2.50;99.90
8043;DHT22;4064;48.132;11.366;2023-02-01T03:27:02;2.60;99.90
8043;DHT22;4064;48.132;11.366;2023-02-01T03:29:48;2.60;99.90
8043;DHT22;4064;48.132;11.366;2023-02-01T03:32:15;2.60;99.90
8043;DHT22;4064;48.132;11.366;2023-02-01T03:34:41;2.60;99.90
8043;DHT22;4064;48.132;11.366;2023-02-01T03:37:10;2.60;99.90
8043;DHT22;4064;48.132;11.366;2023-02-01T03:39:58;2.60;99.90
8043;DHT22;4064;48.132;11.366;2023-02-01T03:42:37;2.60;99.90
8043;DHT22;4064;48.132;11.366;2023-02-01T03:45:11;2.60;99.90
8043;DHT22;4064;48.132;11.366;2023-02-01T03:47:41;2.60;99.90
8043;DHT22;4064;48.132;11.366;2023-02-01T03:50:10;2.60;99.90
8043;DHT22;4064;48.132;11.366;2023-02-01T03:52:42;2.60;99.90
8043;DHT22;4064;48.132;11.366;2023-02-01T03:55:11;2.60;99.90
8043;DHT22;4064;48.132;11.366;2023-02-01T03:57:43;2.60;99.90
8043;DHT22;4064;48.132;11.366;2023-02-01T04:00:24;2.60;99.90
8043;DHT22;4064;48.132;11.366;2023-02-01T04:02:50;2.60;99.90
8043;DHT22;4064;48.132;11.366;2023-02-01T04:05:16;2.60;99.90
8043;DHT22;4064;48.132;11.366;2023-02-01T04:07:42;2.60;99.90
8043;DHT22;4064;48.132;11.366;2023-02-01T04:10:08;2.60;99.90
8043;DHT22;4064;48.132;11.366;2023-02-01T04:12:34;2.60;99.90
8043;DHT22;4064;48.132;11.366;2023-02-01T04:15:00;2.60;99.90
8043;DHT22;4064;48.132;11.366;2023-02-01T04:17:26;2.60;99.90
8043;DHT22;4064;48.132;11.366;2023-02-01T04:19:51;2.60;99.90
8043;DHT22;4064;48.132;11.366;2023-02-01T04:22:17;2.60;99.90
8043;DHT22;4064;48.132;11.366;2023-02-01T04:24:43;2.60;99.90
8043;DHT22;4064;48.132;11.366;2023-02-01T04:27:08;2.60;99.90
8043;DHT22;4064;48.132;11.366;2023-02-01T04:29:34;2.60;99.90
8043;DHT22;4064;48.132;11.366;2023-02-01T04:32:00;2.60;99.90
8043;DHT22;4064;48.132;11.366;2023-02-01T04:34:25;2.60;99.90
8043;DHT22;4064;48.132;11.366;2023-02-01T04:36:54;2.60;99.90
8043;DHT22;4064;48.132;11.366;2023-02-01T04:39:20;2.60;99.90
8043;DHT22;4064;48.132;11.366;2023-02-01T04:41:46;2.60;99.90
8043;DHT22;4064;48.132;11.366;2023-02-01T04:44:16;2.60;99.90
8043;DHT22;4064;48.132;11.366;2023-02-01T04:46:43;2.60;99.90
8043;DHT22;4064;48.132;11.366;2023-02-01T04:49:09;2.60;99.90
8043;DHT22;4064;48.132;11.366;2023-02-01T04:51:35;2.60;99.90
8043;DHT22;4064;48.132;11.366;2023-02-01T04:54:01;2.60;99.90
8043;DHT22;4064;48.132;11.366;2023-02-01T04:56:30;2.60;99.90
8043;DHT22;4064;48.132;11.366;2023-02-01T04:58:56;2.60;99.90
8043;DHT22;4064;48.132;11.366;2023-02-01T05:01:23;2.60;99.90
8043;DHT22;4064;48.132;11.366;2023-02-01T05:03:50;2.60;99.90
8043;DHT22;4064;48.132;11.366;2023-02-01T05:06:15;2.70;99.90
8043;DHT22;4064;48.132;11.366;2023-02-01T05:08:41;2.70;99.90
8043;DHT22;4064;48.132;11.366;2023-02-01T05:11:06;2.70;99.90
8043;DHT22;4064;48.132;11.366;2023-02-01T05:13:52;2.70;99.90
8043;DHT22;4064;48.132;11.366;2023-02-01T05:16:18;2.70;99.90
8043;DHT22;4064;48.132;11.366;2023-02-01T05:18:43;2.70;99.90
8043;DHT22;4064;48.132;11.366;2023-02-01T05:21:09;2.70;99.90
8043;DHT22;4064;48.132;11.366;2023-02-01T05:23:34;2.70;99.90
8043;DHT22;4064;48.132;11.366;2023-02-01T05:26:23;2.70;99.90
8043;DHT22;4064;48.132;11.366;2023-02-01T05:28:48;2.70;99.90
8043;DHT22;4064;48.132;11.366;2023-02-01T05:31:14;2.70;99.90
8043;DHT22;4064;48.132;11.366;2023-02-01T05:33:40;2.80;99.90
8043;DHT22;4064;48.132;11.366;2023-02-01T05:36:05;2.70;99.90
8043;DHT22;4064;48.132;11.366;2023-02-01T05:38:31;2.70;99.90
8043;DHT22;4064;48.132;11.366;2023-02-01T05:40:57;2.70;99.90
8043;DHT22;4064;48.132;11.366;2023-02-01T05:43:22;2.70;99.90
8043;DHT22;4064;48.132;11.366;2023-02-01T05:45:48;2.70;99.90
8043;DHT22;4064;48.132;11.366;2023-02-01T05:48:14;2.80;99.90
8043;DHT22;4064;48.132;11.366;2023-02-01T05:50:39;2.70;99.90
8043;DHT22;4064;48.132;11.366;2023-02-01T05:53:05;2.70;99.90
8043;DHT22;4064;48.132;11.366;2023-02-01T05:55:31;2.70;99.90
8043;DHT22;4064;48.132;11.366;2023-02-01T05:57:57;2.70;99.90
8043;DHT22;4064;48.132;11.366;2023-02-01T06:00:23;2.70;99.90
8043;DHT22;4064;48.132;11.366;2023-02-01T06:02:49;2.70;99.90
8043;DHT22;4064;48.132;11.366;2023-02-01T06:05:14;2.70;99.90
8043;DHT22;4064;48.132;11.366;2023-02-01T06:07:40;2.80;99.90
8043;DHT22;4064;48.132;11.366;2023-02-01T06:10:06;2.70;99.90
8043;DHT22;4064;48.132;11.366;2023-02-01T06:12:32;2.70;99.90
8043;DHT22;4064;48.132;11.366;2023-02-01T06:14:57;2.80;99.90
8043;DHT22;4064;48.132;11.366;2023-02-01T06:17:24;2.80;99.90
8043;DHT22;4064;48.132;11.366;2023-02-01T06:19:50;2.80;99.90
8043;DHT22;4064;48.132;11.366;2023-02-01T06:22:16;2.80;99.90
8043;DHT22;4064;48.132;11.366;2023-02-01T06:24:42;2.80;99.90
8043;DHT22;4064;48.132;11.366;2023-02-01T06:27:08;2.80;99.90
8043;DHT22;4064;48.132;11.366;2023-02-01T06:29:35;2.80;99.90
8043;DHT22;4064;48.132;11.366;2023-02-01T06:32:01;2.80;99.90
8043;DHT22;4064;48.132;11.366;2023-02-01T06:34:26;2.80;99.90
8043;DHT22;4064;48.132;11.366;2023-02-01T06:36:52;2.80;99.90
8043;DHT22;4064;48.132;11.366;2023-02-01T06:39:18;2.80;99.90
8043;DHT22;4064;48.132;11.366;2023-02-01T06:41:48;2.80;99.90
8043;DHT22;4064;48.132;11.366;2023-02-01T06:44:14;2.80;99.90
8043;DHT22;4064;48.132;11.366;2023-02-01T06:46:40;2.80;99.90
8043;DHT22;4064;48.132;11.366;2023-02-01T06:49:06;2.80;99.90
8043;DHT22;4064;48.132;11.366;2023-02-01T06:51:31;2.90;99.90
8043;DHT22;4064;48.132;11.366;2023-02-01T06:53:57;2.90;99.90
8043;DHT22;4064;48.132;11.366;2023-02-01T06:56:23;2.80;99.90
8043;DHT22;4064;48.132;11.366;2023-02-01T06:58:49;2.90;99.90
8043;DHT22;4064;48.132;11.366;2023-02-01T07:01:15;2.90;99.90
8043;DHT22;4064;48.132;11.366;2023-02-01T07:03:41;2.90;99.90
8043;DHT22;4064;48.132;11.366;2023-02-01T07:06:08;3.00;99.90
8043;DHT22;4064;48.132;11.366;2023-02-01T07:08:36;3.00;99.90
8043;DHT22;4064;48.132;11.366;2023-02-01T07:11:07;3.00;99.90
8043;DHT22;4064;48.132;11.366;2023-02-01T07:13:34;3.10;99.90
8043;DHT22;4064;48.132;11.366;2023-02-01T07:16:05;3.10;99.90
8043;DHT22;4064;48.132;11.366;2023-02-01T07:18:31;3.10;99.90
8043;DHT22;4064;48.132;11.366;2023-02-01T07:20:58;3.10;99.90
8043;DHT22;4064;48.132;11.366;2023-02-01T07:23:25;3.10;99.90
8043;DHT22;4064;48.132;11.366;2023-02-01T07:25:55;3.10;99.90
8043;DHT22;4064;48.132;11.366;2023-02-01T07:28:21;3.10;99.90
8043;DHT22;4064;48.132;11.366;2023-02-01T07:30:47;3.10;99.90
8043;DHT22;4064;48.132;11.366;2023-02-01T07:33:21;3.10;99.90
8043;DHT22;4064;48.132;11.366;2023-02-01T07:35:47;3.10;99.90
8043;DHT22;4064;48.132;11.366;2023-02-01T07:38:13;3.20;99.90
8043;DHT22;4064;48.132;11.366;2023-02-01T07:40:39;3.20;99.90
8043;DHT22;4064;48.132;11.366;2023-02-01T07:43:05;3.20;99.90
8043;DHT22;4064;48.132;11.366;2023-02-01T07:45:33;3.20;99.90
8043;DHT22;4064;48.132;11.366;2023-02-01T07:47:59;3.20;99.90
8043;DHT22;4064;48.132;11.366;2023-02-01T07:50:25;3.20;99.90
8043;DHT22;4064;48.132;11.366;2023-02-01T07:52:50;3.20;99.90
8043;DHT22;4064;48.132;11.366;2023-02-01T07:55:16;3.20;99.90
8043;DHT22;4064;48.132;11.366;2023-02-01T07:57:42;3.30;99.90
8043;DHT22;4064;48.132;11.366;2023-02-01T08:00:08;3.30;99.90
8043;DHT22;4064;48.132;11.366;2023-02-01T08:02:53;3.40;99.90
8043;DHT22;4064;48.132;11.366;2023-02-01T08:05:18;3.40;99.90
8043;DHT22;4064;48.132;11.366;2023-02-01T08:07:48;3.40;99.90
8043;DHT22;4064;48.132;11.366;2023-02-01T08:10:15;3.40;99.90
8043;DHT22;4064;48.132;11.366;2023-02-01T08:12:41;3.50;99.90
8043;DHT22;4064;48.132;11.366;2023-02-01T08:15:07;3.50;99.90
8043;DHT22;4064;48.132;11.366;2023-02-01T08:17:33;3.50;99.90
8043;DHT22;4064;48.132;11.366;2023-02-01T08:19:59;3.50;99.90
8043;DHT22;4064;48.132;11.366;2023-02-01T08:22:24;3.50;99.90
8043;DHT22;4064;48.132;11.366;2023-02-01T08:24:50;3.60;99.90
8043;DHT22;4064;48.132;11.366;2023-02-01T08:27:17;3.60;99.90
8043;DHT22;4064;48.132;11.366;2023-02-01T08:29:42;3.60;99.90
8043;DHT22;4064;48.132;11.366;2023-02-01T08:32:08;3.70;99.90
8043;DHT22;4064;48.132;11.366;2023-02-01T08:34:34;3.70;99.90
8043;DHT22;4064;48.132;11.366;2023-02-01T08:36:59;3.70;99.90
8043;DHT22;4064;48.132;11.366;2023-02-01T08:39:28;3.70;99.90
8043;DHT22;4064;48.132;11.366;2023-02-01T08:41:53;3.70;99.90
8043;DHT22;4064;48.132;11.366;2023-02-01T08:44:37;3.80;99.90
8043;DHT22;4064;48.132;11.366;2023-02-01T08:47:03;3.90;99.90
8043;DHT22;4064;48.132;11.366;2023-02-01T08:49:29;3.90;99.90
8043;DHT22;4064;48.132;11.366;2023-02-01T08:51:55;4.00;99.90
8043;DHT22;4064;48.132;11.366;2023-02-01T08:54:21;4.00;99.90
8043;DHT22;4064;48.132;11.366;2023-02-01T08:56:47;4.00;99.90
8043;DHT22;4064;48.132;11.366;2023-02-01T08:59:12;4.10;99.90
8043;DHT22;4064;48.132;11.366;2023-02-01T09:01:38;4.10;99.90
8043;DHT22;4064;48.132;11.366;2023-02-01T09:04:03;4.10;99.90
8043;DHT22;4064;48.132;11.366;2023-02-01T09:06:29;4.10;99.90
8043;DHT22;4064;48.132;11.366;2023-02-01T09:08:55;4.10;99.90
8043;DHT22;4064;48.132;11.366;2023-02-01T09:11:21;4.20;99.90
8043;DHT22;4064;48.132;11.366;2023-02-01T09:13:47;4.20;99.90
8043;DHT22;4064;48.132;11.366;2023-02-01T09:16:13;4.20;99.90
8043;DHT22;4064;48.132;11.366;2023-02-01T09:18:39;4.30;99.90
8043;DHT22;4064;48.132;11.366;2023-02-01T09:21:06;4.30;99.90
8043;DHT22;4064;48.132;11.366;2023-02-01T09:23:32;4.30;99.90
8043;DHT22;4064;48.132;11.366;2023-02-01T09:26:03;4.30;99.90
8043;DHT22;4064;48.132;11.366;2023-02-01T09:28:29;4.30;99.90
8043;DHT22;4064;48.132;11.366;2023-02-01T09:30:59;4.30;99.90
8043;DHT22;4064;48.132;11.366;2023-02-01T09:33:27;4.40;99.90
8043;DHT22;4064;48.132;11.366;2023-02-01T09:36:01;4.40;99.90
8043;DHT22;4064;48.132;11.366;2023-02-01T09:38:28;4.50;99.90
8043;DHT22;4064;48.132;11.366;2023-02-01T09:40:54;4.60;99.90
8043;DHT22;4064;48.132;11.366;2023-02-01T09:46:20;4.60;99.90
8043;DHT22;4064;48.132;11.366;2023-02-01T09:48:48;4.70;99.90
8043;DHT22;4064;48.132;11.366;2023-02-01T09:51:22;4.70;99.90
8043;DHT22;4064;48.132;11.366;2023-02-01T09:56:35;4.80;99.90
8043;DHT22;4064;48.132;11.366;2023-02-01T10:01:44;4.90;99.90
8043;DHT22;4064;48.132;11.366;2023-02-01T10:04:13;5.00;99.90
8043;DHT22;4064;48.132;11.366;2023-02-01T10:07:02;4.90;99.90
8043;DHT22;4064;48.132;11.366;2023-02-01T10:23:06;4.70;99.90
8043;DHT22;4064;48.132;11.366;2023-02-01T10:28:18;4.70;99.90
8043;DHT22;4064;48.132;11.366;2023-02-01T10:30:48;4.60;99.90
8043;DHT22;4064;48.132;11.366;2023-02-01T10:33:18;4.60;99.90
8043;DHT22;4064;48.132;11.366;2023-02-01T10:35:45;4.50;99.90
8043;DHT22;4064;48.132;11.366;2023-02-01T10:38:30;4.60;99.90
8043;DHT22;4064;48.132;11.366;2023-02-01T10:41:03;4.70;99.90
8043;DHT22;4064;48.132;11.366;2023-02-01T10:43:29;4.70;99.90
8043;DHT22;4064;48.132;11.366;2023-02-01T10:45:55;4.70;99.90
8043;DHT22;4064;48.132;11.366;2023-02-01T10:48:21;4.80;99.90
8043;DHT22;4064;48.132;11.366;2023-02-01T10:50:55;4.70;99.90
8043;DHT22;4064;48.132;11.366;2023-02-01T10:56:06;4.70;99.90
8043;DHT22;4064;48.132;11.366;2023-02-01T10:58:33;4.70;99.90
8043;DHT22;4064;48.132;11.366;2023-02-01T11:01:06;4.60;99.90
8043;DHT22;4064;48.132;11.366;2023-02-01T11:03:44;4.50;99.90
8043;DHT22;4064;48.132;11.366;2023-02-01T11:06:27;4.50;99.90
8043;DHT22;4064;48.132;11.366;2023-02-01T11:09:38;4.50;99.90
8043;DHT22;4064;48.132;11.366;2023-02-01T11:14:20;4.70;99.90
8043;DHT22;4064;48.132;11.366;2023-02-01T11:16:59;4.70;99.90
8043;DHT22;4064;48.132;11.366;2023-02-01T11:19:28;4.80;99.90
8043;DHT22;4064;48.132;11.366;2023-02-01T11:21:56;4.80;99.90
8043;DHT22;4064;48.132;11.366;2023-02-01T11:24:33;4.70;99.90
8043;DHT22;4064;48.132;11.366;2023-02-01T11:27:06;4.70;99.90
8043;DHT22;4064;48.132;11.366;2023-02-01T11:29:40;4.70;99.90
8043;DHT22;4064;48.132;11.366;2023-02-01T11:32:08;4.60;99.90
8043;DHT22;4064;48.132;11.366;2023-02-01T11:34:53;4.60;99.90
8043;DHT22;4064;48.132;11.366;2023-02-01T11:37:29;4.60;99.90
8043;DHT22;4064;48.132;11.366;2023-02-01T11:40:01;4.50;99.90
8043;DHT22;4064;48.132;11.366;2023-02-01T11:42:28;4.50;99.90
8043;DHT22;4064;48.132;11.366;2023-02-01T11:45:46;4.50;99.90
8043;DHT22;4064;48.132;11.366;2023-02-01T11:48:13;4.50;99.90
8043;DHT22;4064;48.132;11.366;2023-02-01T11:51:02;4.50;99.90
8043;DHT22;4064;48.132;11.366;2023-02-01T11:59:08;4.30;99.90
8043;DHT22;4064;48.132;11.366;2023-02-01T12:05:04;4.30;99.90
8043;DHT22;4064;48.132;11.366;2023-02-01T12:10:24;4.20;99.90
8043;DHT22;4064;48.132;11.366;2023-02-01T12:13:23;4.30;99.90
8043;DHT22;4064;48.132;11.366;2023-02-01T12:22:04;4.20;99.90
8043;DHT22;4064;48.132;11.366;2023-02-01T12:25:12;4.20;99.90
8043;DHT22;4064;48.132;11.366;2023-02-01T12:41:34;4.00;99.90
8043;DHT22;4064;48.132;11.366;2023-02-01T12:47:01;4.10;99.90
8043;DHT22;4064;48.132;11.366;2023-02-01T12:49:41;4.10;99.90
8043;DHT22;4064;48.132;11.366;2023-02-01T12:52:30;4.10;99.90
8043;DHT22;4064;48.132;11.366;2023-02-01T12:55:10;4.10;99.90
8043;DHT22;4064;48.132;11.366;2023-02-01T12:57:44;4.10;99.90
8043;DHT22;4064;48.132;11.366;2023-02-01T13:00:32;4.10;99.90
8043;DHT22;4064;48.132;11.366;2023-02-01T13:03:00;4.10;99.90
8043;DHT22;4064;48.132;11.366;2023-02-01T13:05:46;4.10;99.90
8043;DHT22;4064;48.132;11.366;2023-02-01T13:08:24;4.10;99.90
8043;DHT22;4064;48.132;11.366;2023-02-01T13:10:58;4.20;99.90
8043;DHT22;4064;48.132;11.366;2023-02-01T13:13:52;4.20;99.90
8043;DHT22;4064;48.132;11.366;2023-02-01T13:16:30;4.20;99.90
8043;DHT22;4064;48.132;11.366;2023-02-01T13:19:05;4.20;99.90
8043;DHT22;4064;48.132;11.366;2023-02-01T13:21:34;4.10;99.90
8043;DHT22;4064;48.132;11.366;2023-02-01T13:24:00;4.10;99.90
8043;DHT22;4064;48.132;11.366;2023-02-01T13:26:26;4.10;99.90
8043;DHT22;4064;48.132;11.366;2023-02-01T13:29:06;4.10;99.90
8043;DHT22;4064;48.132;11.366;2023-02-01T13:31:52;4.10;99.90
8043;DHT22;4064;48.132;11.366;2023-02-01T13:42:57;4.20;99.90
8043;DHT22;4064;48.132;11.366;2023-02-01T13:45:29;4.20;99.90
8043;DHT22;4064;48.132;11.366;2023-02-01T13:47:58;4.20;99.90
8043;DHT22;4064;48.132;11.366;2023-02-01T13:50:35;4.20;99.90
8043;DHT22;4064;48.132;11.366;2023-02-01T13:55:36;4.30;99.90
8043;DHT22;4064;48.132;11.366;2023-02-01T13:58:20;4.20;99.90
8043;DHT22;4064;48.132;11.366;2023-02-01T14:00:53;4.20;99.90
8043;DHT22;4064;48.132;11.366;2023-02-01T14:03:56;4.20;99.90
8043;DHT22;4064;48.132;11.366;2023-02-01T14:11:54;4.20;99.90
8043;DHT22;4064;48.132;11.366;2023-02-01T14:19:30;4.10;99.90
8043;DHT22;4064;48.132;11.366;2023-02-01T14:22:32;4.10;99.90
8043;DHT22;4064;48.132;11.366;2023-02-01T14:24:54;4.10;99.90
8043;DHT22;4064;48.132;11.366;2023-02-01T14:27:29;4.10;99.90
8043;DHT22;4064;48.132;11.366;2023-02-01T14:30:01;4.10;99.90
8043;DHT22;4064;48.132;11.366;2023-02-01T14:32:40;4.10;99.90
8043;DHT22;4064;48.132;11.366;2023-02-01T14:37:44;4.10;99.90
8043;DHT22;4064;48.132;11.366;2023-02-01T14:47:51;4.30;99.90
8043;DHT22;4064;48.132;11.366;2023-02-01T14:50:31;4.30;99.90
8043;DHT22;4064;48.132;11.366;2023-02-01T14:55:47;4.40;99.90
8043;DHT22;4064;48.132;11.366;2023-02-01T15:00:56;4.30;99.90
8043;DHT22;4064;48.132;11.366;2023-02-01T15:03:36;4.30;99.90
8043;DHT22;4064;48.132;11.366;2023-02-01T15:09:04;4.20;99.90
8043;DHT22;4064;48.132;11.366;2023-02-01T15:14:21;4.10;99.90
8043;DHT22;4064;48.132;11.366;2023-02-01T15:16:49;4.00;99.90
8043;DHT22;4064;48.132;11.366;2023-02-01T15:19:20;4.00;99.90
8043;DHT22;4064;48.132;11.366;2023-02-01T15:21:52;3.80;99.90
8043;DHT22;4064;48.132;11.366;2023-02-01T15:24:29;3.70;99.90
8043;DHT22;4064;48.132;11.366;2023-02-01T15:26:58;3.70;99.90
8043;DHT22;4064;48.132;11.366;2023-02-01T15:29:27;3.60;99.90
8043;DHT22;4064;48.132;11.366;2023-02-01T15:31:57;3.50;99.90
8043;DHT22;4064;48.132;11.366;2023-02-01T15:34:23;3.50;99.90
8043;DHT22;4064;48.132;11.366;2023-02-01T15:37:13;3.50;99.90
8043;DHT22;4064;48.132;11.366;2023-02-01T15:42:29;3.30;99.90
8043;DHT22;4064;48.132;11.366;2023-02-01T15:44:54;3.40;99.90
8043;DHT22;4064;48.132;11.366;2023-02-01T15:47:25;3.30;99.90
8043;DHT22;4064;48.132;11.366;2023-02-01T15:49:55;3.30;99.90
8043;DHT22;4064;48.132;11.366;2023-02-01T15:55:05;3.30;99.90
8043;DHT22;4064;48.132;11.366;2023-02-01T15:57:38;3.30;99.90
8043;DHT22;4064;48.132;11.366;2023-02-01T16:00:29;3.30;99.90
8043;DHT22;4064;48.132;11.366;2023-02-01T16:02:55;3.30;99.90
8043;DHT22;4064;48.132;11.366;2023-02-01T16:05:40;3.30;99.90
8043;DHT22;4064;48.132;11.366;2023-02-01T16:08:17;3.20;99.90
8043;DHT22;4064;48.132;11.366;2023-02-01T16:10:48;3.20;99.90
8043;DHT22;4064;48.132;11.366;2023-02-01T16:13:15;3.20;99.90
8043;DHT22;4064;48.132;11.366;2023-02-01T16:15:41;3.10;99.90
8043;DHT22;4064;48.132;11.366;2023-02-01T16:18:08;3.10;99.90
8043;DHT22;4064;48.132;11.366;2023-02-01T16:20:38;3.20;99.90
8043;DHT22;4064;48.132;11.366;2023-02-01T16:23:05;3.20;99.90
8043;DHT22;4064;48.132;11.366;2023-02-01T16:25:31;3.20;99.90
8043;DHT22;4064;48.132;11.366;2023-02-01T16:27:56;3.20;99.90
8043;DHT22;4064;48.132;11.366;2023-02-01T16:30:22;3.20;99.90
8043;DHT22;4064;48.132;11.366;2023-02-01T16:33:00;3.20;99.90
8043;DHT22;4064;48.132;11.366;2023-02-01T16:35:33;3.20;99.90
8043;DHT22;4064;48.132;11.366;2023-02-01T16:38:11;3.20;99.90
8043;DHT22;4064;48.132;11.366;2023-02-01T16:40:42;3.20;99.90
8043;DHT22;4064;48.132;11.366;2023-02-01T16:43:19;3.30;99.90
8043;DHT22;4064;48.132;11.366;2023-02-01T16:45:46;3.30;99.90
8043;DHT22;4064;48.132;11.366;2023-02-01T16:48:27;3.30;99.90
8043;DHT22;4064;48.132;11.366;2023-02-01T16:50:57;3.30;99.90
8043;DHT22;4064;48.132;11.366;2023-02-01T16:53:24;3.30;99.90
8043;DHT22;4064;48.132;11.366;2023-02-01T16:55:51;3.30;99.90
8043;DHT22;4064;48.132;11.366;2023-02-01T16:58:18;3.30;99.90
8043;DHT22;4064;48.132;11.366;2023-02-01T17:00:44;3.30;99.90
8043;DHT22;4064;48.132;11.366;2023-02-01T17:03:11;3.40;99.90
8043;DHT22;4064;48.132;11.366;2023-02-01T17:05:53;3.40;99.90
8043;DHT22;4064;48.132;11.366;2023-02-01T17:08:36;3.50;99.90
8043;DHT22;4064;48.132;11.366;2023-02-01T17:11:03;3.50;99.90
8043;DHT22;4064;48.132;11.366;2023-02-01T17:13:29;3.50;99.90
8043;DHT22;4064;48.132;11.366;2023-02-01T17:16:19;3.50;99.90
8043;DHT22;4064;48.132;11.366;2023-02-01T17:19:02;3.50;99.90
8043;DHT22;4064;48.132;11.366;2023-02-01T17:21:30;3.50;99.90
8043;DHT22;4064;48.132;11.366;2023-02-01T17:23:56;3.50;99.90
8043;DHT22;4064;48.132;11.366;2023-02-01T17:26:24;3.50;99.90
8043;DHT22;4064;48.132;11.366;2023-02-01T17:28:50;3.50;99.90
8043;DHT22;4064;48.132;11.366;2023-02-01T17:31:16;3.60;99.90
8043;DHT22;4064;48.132;11.366;2023-02-01T17:33:42;3.60;99.90
8043;DHT22;4064;48.132;11.366;2023-02-01T17:36:13;3.60;99.90
8043;DHT22;4064;48.132;11.366;2023-02-01T17:38:39;3.60;99.90
8043;DHT22;4064;48.132;11.366;2023-02-01T17:41:05;3.60;99.90
8043;DHT22;4064;48.132;11.366;2023-02-01T17:43:31;3.60;99.90
8043;DHT22;4064;48.132;11.366;2023-02-01T17:46:04;3.60;99.90
8043;DHT22;4064;48.132;11.366;2023-02-01T17:48:31;3.60;99.90
8043;DHT22;4064;48.132;11.366;2023-02-01T17:50:57;3.60;99.90
8043;DHT22;4064;48.132;11.366;2023-02-01T17:53:26;3.60;99.90
8043;DHT22;4064;48.132;11.366;2023-02-01T17:55:52;3.60;99.90
8043;DHT22;4064;48.132;11.366;2023-02-01T17:58:18;3.70;99.90
8043;DHT22;4064;48.132;11.366;2023-02-01T18:00:46;3.70;99.90
8043;DHT22;4064;48.132;11.366;2023-02-01T18:03:28;3.60;99.90
8043;DHT22;4064;48.132;11.366;2023-02-01T18:05:56;3.70;99.90
8043;DHT22;4064;48.132;11.366;2023-02-01T18:08:26;3.70;99.90
8043;DHT22;4064;48.132;11.366;2023-02-01T18:10:58;3.70;99.90
8043;DHT22;4064;48.132;11.366;2023-02-01T18:13:25;3.70;99.90
8043;DHT22;4064;48.132;11.366;2023-02-01T18:15:51;3.70;99.90
8043;DHT22;4064;48.132;11.366;2023-02-01T18:18:17;3.70;99.90
8043;DHT22;4064;48.132;11.366;2023-02-01T18:20:44;3.70;99.90
8043;DHT22;4064;48.132;11.366;2023-02-01T18:23:15;3.70;99.90
8043;DHT22;4064;48.132;11.366;2023-02-01T18:25:42;3.70;99.90
8043;DHT22;4064;48.132;11.366;2023-02-01T18:28:10;3.70;99.90
8043;DHT22;4064;48.132;11.366;2023-02-01T18:30:35;3.80;99.90
8043;DHT22;4064;48.132;11.366;2023-02-01T18:33:01;3.80;99.90
8043;DHT22;4064;48.132;11.366;2023-02-01T18:35:30;3.80;99.90